Terminal Aerodrome Forecast
Issued by NWS

Home | Current Version | Previous Version | Text Only | Print | Product List | Glossary On
Versions: 1 2 3 4 5 6 7 8 9 10 11 12 13 14 15
258
FTUS43 KMQT 271739
TAFIWD
TAF
KIWD 271739Z 2718/2818 35004KT P6SM OVC010
     FM272000 36004KT P6SM SCT020
      TEMPO 2720/2722 BKN020
     FM272300 01003KT P6SM FEW025
     FM280900 00000KT 3SM BR FEW002 SCT020
     FM281200 06003KT P6SM SCT020=

USA.gov is the U.S. government's official web portal to all federal, state and local government web resources and services.